createdAt,value
2023-02-17T00:03:27.170Z,25.13
2023-02-17T00:08:35.333Z,27.60
2023-02-17T00:13:42.725Z,26.43
2023-02-17T00:18:49.890Z,26.45
2023-02-17T00:23:58.739Z,24.60
2023-02-17T00:29:05.263Z,27.50
2023-02-17T00:34:12.070Z,27.40
2023-02-17T00:39:20.802Z,29.38
2023-02-17T00:44:28.695Z,30.77
2023-02-17T00:49:35.580Z,29.30
2023-02-17T00:54:43.626Z,27.90
2023-02-17T00:59:51.119Z,29.73
2023-02-17T01:04:57.600Z,28.38
2023-02-17T01:10:06.105Z,26.42
2023-02-17T01:15:14.283Z,30.15
2023-02-17T01:20:24.244Z,29.38
2023-02-17T01:25:32.697Z,29.48
2023-02-17T01:30:39.525Z,29.67
2023-02-17T01:35:47.834Z,29.90
2023-02-17T01:40:56.264Z,29.48
2023-02-17T01:46:05.043Z,30.48
2023-02-17T01:51:18.797Z,29.45
2023-02-17T01:56:28.705Z,28.90
2023-02-17T02:01:38.231Z,30.02
2023-02-17T02:06:46.874Z,28.25
2023-02-17T02:11:55.370Z,29.48
2023-02-17T02:17:12.527Z,23.17
2023-02-17T02:22:54.733Z,29.30
2023-02-17T02:28:18.058Z,29.83
2023-02-17T02:33:35.254Z,28.50
2023-02-17T02:38:49.597Z,29.65
2023-02-17T02:43:56.600Z,29.80
2023-02-17T02:49:06.369Z,28.70
2023-02-17T02:54:48.845Z,28.35
2023-02-17T03:00:14.716Z,27.17
2023-02-17T03:05:34.502Z,28.15
2023-02-17T03:10:50.113Z,29.17
2023-02-17T03:15:57.065Z,29.83
2023-02-17T03:21:14.119Z,28.90
2023-02-17T03:26:21.518Z,29.42
2023-02-17T03:31:30.631Z,27.42
2023-02-17T03:41:45.004Z,26.60
2023-02-17T03:46:51.327Z,27.58
2023-02-17T03:51:59.788Z,27.33
2023-02-17T03:57:06.622Z,21.70
2023-02-17T04:02:12.989Z,26.23
2023-02-17T04:07:20.754Z,27.35
2023-02-17T04:12:27.307Z,25.75
2023-02-17T04:17:33.810Z,26.15
2023-02-17T04:22:41.999Z,26.30
2023-02-17T04:27:48.442Z,24.53
2023-02-17T04:32:54.617Z,26.48
2023-02-17T04:38:02.503Z,27.42
2023-02-17T04:43:08.880Z,26.00
2023-02-17T04:48:15.086Z,25.38
2023-02-17T04:53:22.960Z,26.25
2023-02-17T04:58:29.340Z,25.10
2023-02-17T05:03:35.622Z,24.65
2023-02-17T05:08:43.636Z,25.38
2023-02-17T05:13:50.058Z,25.20
2023-02-17T05:18:56.501Z,23.77
2023-02-17T05:24:04.427Z,23.63
2023-02-17T05:29:10.883Z,25.80
2023-02-17T05:34:17.328Z,23.58
2023-02-17T05:39:25.154Z,25.60
2023-02-17T05:44:31.610Z,24.23
2023-02-17T05:49:37.798Z,23.77
2023-02-17T05:54:45.581Z,23.83
2023-02-17T05:59:51.832Z,23.20
2023-02-17T06:04:58.373Z,25.05
2023-02-17T06:10:07.850Z,23.67
2023-02-17T06:15:14.429Z,24.83
2023-02-17T06:20:21.341Z,25.65
2023-02-17T06:25:29.396Z,24.08
2023-02-17T06:30:36.115Z,21.87
2023-02-17T06:35:42.420Z,23.45
2023-02-17T06:40:50.395Z,24.95
2023-02-17T06:45:56.990Z,23.15
2023-02-17T06:51:03.586Z,22.50
2023-02-17T06:56:11.575Z,22.55
2023-02-17T07:01:20.320Z,22.40
2023-02-17T07:06:28.492Z,21.75
2023-02-17T07:11:37.213Z,22.17
2023-02-17T07:16:43.969Z,21.20
2023-02-17T07:21:50.373Z,23.17
2023-02-17T07:26:58.135Z,22.25
2023-02-17T07:32:05.185Z,22.50
2023-02-17T07:37:11.701Z,22.45
2023-02-17T07:42:19.625Z,21.02
2023-02-17T07:47:26.794Z,21.95
2023-02-17T07:52:33.377Z,21.83
2023-02-17T07:57:41.359Z,23.33
2023-02-17T08:02:47.699Z,22.40
2023-02-17T08:08:14.319Z,22.27
2023-02-17T08:13:22.188Z,21.30
2023-02-17T08:18:30.585Z,22.45
2023-02-17T08:23:38.747Z,21.63
2023-02-17T08:28:47.230Z,21.55
2023-02-17T08:33:54.064Z,19.42
2023-02-17T08:39:01.830Z,21.63
2023-02-17T08:44:13.953Z,22.38
2023-02-17T08:49:23.021Z,21.98
2023-02-17T08:59:37.091Z,19.05
2023-02-17T09:04:43.694Z,20.45
2023-02-17T09:09:49.995Z,19.17
2023-02-17T09:14:57.898Z,19.52
2023-02-17T09:20:11.228Z,18.77
2023-02-17T09:26:02.896Z,19.35
2023-02-17T09:31:28.348Z,21.77
2023-02-17T09:36:40.196Z,19.83
2023-02-17T09:41:50.293Z,20.60
2023-02-17T09:47:03.841Z,19.92
2023-02-17T09:52:15.888Z,19.48
2023-02-17T09:57:28.854Z,19.67
2023-02-17T10:02:48.541Z,19.50
2023-02-17T10:08:03.861Z,20.80
2023-02-17T10:13:12.068Z,19.15
2023-02-17T10:18:29.854Z,18.93
2023-02-17T10:23:37.089Z,18.65
2023-02-17T10:29:07.390Z,18.85
2023-02-17T10:34:28.186Z,18.17
2023-02-17T10:39:48.682Z,18.85
2023-02-17T10:45:01.318Z,19.45
2023-02-17T10:50:21.824Z,17.70
2023-02-17T10:55:39.278Z,17.90
2023-02-17T11:00:49.332Z,18.50
2023-02-17T11:06:00.623Z,20.48
2023-02-17T11:11:16.185Z,19.13
2023-02-17T11:16:27.834Z,18.10
2023-02-17T11:21:36.651Z,19.80
2023-02-17T11:26:44.861Z,18.60
2023-02-17T11:31:58.857Z,19.65
2023-02-17T11:37:24.782Z,18.42
2023-02-17T11:42:34.468Z,19.30
2023-02-17T11:48:21.997Z,22.10
2023-02-17T11:53:48.858Z,19.38
2023-02-17T11:59:31.061Z,18.92
2023-02-17T12:04:44.092Z,22.38
2023-02-17T12:10:06.026Z,19.27
2023-02-17T12:15:33.174Z,19.17
2023-02-17T12:20:52.535Z,19.80
2023-02-17T12:26:06.267Z,19.00
2023-02-17T12:31:27.384Z,18.13
2023-02-17T12:36:38.748Z,19.30
2023-02-17T12:41:55.948Z,16.33
2023-02-17T12:47:11.728Z,15.95
2023-02-17T12:52:23.991Z,15.68
2023-02-17T12:57:42.808Z,15.70
2023-02-17T13:02:49.581Z,15.48
2023-02-17T13:08:02.166Z,14.63
2023-02-17T13:13:15.761Z,15.48
2023-02-17T13:18:32.864Z,14.98
2023-02-17T13:23:42.109Z,15.48
2023-02-17T13:34:01.079Z,14.48
2023-02-17T13:39:29.164Z,15.18
2023-02-17T13:44:42.606Z,14.90
2023-02-17T13:49:55.504Z,14.63
2023-02-17T13:55:04.874Z,15.68
2023-02-17T14:00:25.286Z,16.02
2023-02-17T14:05:42.208Z,14.65
2023-02-17T14:10:49.161Z,14.80
2023-02-17T14:16:00.295Z,15.00
2023-02-17T14:21:10.893Z,14.52
2023-02-17T14:26:40.103Z,15.18
2023-02-17T14:31:51.609Z,15.05
2023-02-17T14:37:09.976Z,15.10
2023-02-17T14:42:16.434Z,14.73
2023-02-17T14:47:26.255Z,16.27
2023-02-17T14:52:33.049Z,13.75
2023-02-17T14:57:40.793Z,17.13
2023-02-17T15:02:49.250Z,16.63
2023-02-17T15:07:55.982Z,14.83
2023-02-17T15:13:03.555Z,14.52
2023-02-17T15:18:14.131Z,15.90
2023-02-17T15:23:23.496Z,16.45
2023-02-17T15:28:30.734Z,13.50
2023-02-17T15:33:42.492Z,13.43
2023-02-17T15:38:50.101Z,13.65
2023-02-17T15:43:59.389Z,13.57
2023-02-17T15:49:08.738Z,13.35
2023-02-17T15:59:30.176Z,13.90
2023-02-17T16:04:38.558Z,13.30
2023-02-17T16:09:47.424Z,14.65
2023-02-17T16:14:55.809Z,11.90
2023-02-17T16:20:06.057Z,13.38
2023-02-17T16:25:14.977Z,12.27
2023-02-17T16:30:25.857Z,11.45
2023-02-17T16:35:35.522Z,11.88
2023-02-17T16:40:49.081Z,11.85
2023-02-17T16:45:59.642Z,12.18
2023-02-17T16:51:11.610Z,11.52
2023-02-17T16:56:23.263Z,10.48
2023-02-17T17:01:31.226Z,9.93
2023-02-17T17:06:59.827Z,10.30
2023-02-17T17:12:08.844Z,10.80
2023-02-17T17:17:21.729Z,9.27
2023-02-17T17:22:33.074Z,9.75
2023-02-17T17:27:42.191Z,8.82
2023-02-17T17:38:00.960Z,8.40
2023-02-17T17:43:08.400Z,8.82
2023-02-17T17:48:19.828Z,8.33
2023-02-17T17:53:32.205Z,7.55
2023-02-17T17:58:40.581Z,7.90
2023-02-17T18:03:49.663Z,7.50
2023-02-17T18:09:05.755Z,7.97
2023-02-17T18:14:18.327Z,6.60
2023-02-17T18:19:28.411Z,7.13
2023-02-17T18:24:40.545Z,6.88
2023-02-17T18:29:54.177Z,5.90
2023-02-17T18:35:03.679Z,6.57
2023-02-17T18:45:28.565Z,6.03
2023-02-17T18:50:38.405Z,5.68
2023-02-17T18:55:48.315Z,6.05
2023-02-17T19:00:58.845Z,6.43
2023-02-17T19:06:16.948Z,6.32
2023-02-17T19:11:33.554Z,6.18
2023-02-17T19:16:45.459Z,6.88
2023-02-17T19:21:55.661Z,6.70
2023-02-17T19:27:06.822Z,6.65
2023-02-17T19:32:15.543Z,7.95
2023-02-17T19:42:37.473Z,8.68
2023-02-17T19:47:51.710Z,8.10
2023-02-17T19:53:04.518Z,7.88
2023-02-17T19:58:18.756Z,8.80
2023-02-17T20:03:27.231Z,8.20
2023-02-17T20:08:37.260Z,9.18
2023-02-17T20:13:51.695Z,8.95
2023-02-17T20:19:03.655Z,9.23
2023-02-17T20:24:12.406Z,10.52
2023-02-17T20:29:32.342Z,9.90
2023-02-17T20:34:44.368Z,8.70
2023-02-17T20:39:53.168Z,9.20
2023-02-17T20:45:04.315Z,8.02
2023-02-17T20:50:17.132Z,8.32
2023-02-17T20:55:29.095Z,7.72
2023-02-17T21:00:38.284Z,7.70
2023-02-17T21:05:46.924Z,7.20
2023-02-17T21:10:57.412Z,7.72
2023-02-17T21:16:12.769Z,7.28
2023-02-17T21:21:27.233Z,6.35
2023-02-17T21:26:36.513Z,6.75
2023-02-17T21:31:45.131Z,5.43
2023-02-17T21:36:52.943Z,5.18
2023-02-17T21:42:00.752Z,4.30
2023-02-17T21:47:09.999Z,2.55
2023-02-17T21:57:23.766Z,1.38
2023-02-17T22:02:35.210Z,1.20
2023-02-17T22:07:42.324Z,1.23
2023-02-17T22:12:49.852Z,1.30
2023-02-17T22:17:58.806Z,1.80
2023-02-17T22:23:05.249Z,0.90
2023-02-17T22:28:14.070Z,1.10
2023-02-17T22:33:22.295Z,0.95
2023-02-17T22:38:29.134Z,1.85
2023-02-17T22:43:37.324Z,0.98
2023-02-17T22:48:46.816Z,0.82
2023-02-17T22:53:53.888Z,0.90
2023-02-17T22:59:01.857Z,0.50
2023-02-17T23:04:09.870Z,0.93
2023-02-17T23:09:19.842Z,0.90
2023-02-17T23:14:30.190Z,1.30
2023-02-17T23:19:39.189Z,1.35
2023-02-17T23:24:45.385Z,1.27
2023-02-17T23:29:51.617Z,1.08
2023-02-17T23:34:59.434Z,0.95
2023-02-17T23:40:06.721Z,1.00
2023-02-17T23:45:13.848Z,1.50
2023-02-17T23:50:22.021Z,1.17
2023-02-17T23:55:28.526Z,0.93
